createdAt,value
2022-12-03T00:02:05.253Z,6.32
2022-12-03T00:04:33.799Z,6.65
2022-12-03T00:07:02.432Z,6.55
2022-12-03T00:09:30.840Z,6.80
2022-12-03T00:11:59.457Z,6.75
2022-12-03T00:14:30.418Z,7.20
2022-12-03T00:16:59.018Z,6.88
2022-12-03T00:19:27.668Z,7.20
2022-12-03T00:21:56.254Z,7.00
2022-12-03T00:24:25.186Z,7.00
2022-12-03T00:26:54.072Z,6.07
2022-12-03T00:29:30.237Z,6.03
2022-12-03T00:32:01.017Z,6.60
2022-12-03T00:34:30.298Z,7.30
2022-12-03T00:36:58.975Z,6.90
2022-12-03T00:39:27.768Z,7.57
2022-12-03T00:41:56.457Z,6.82
2022-12-03T00:44:24.959Z,6.93
2022-12-03T00:46:55.069Z,5.53
2022-12-03T00:49:25.459Z,4.78
2022-12-03T00:51:54.261Z,5.63
2022-12-03T00:54:28.339Z,4.88
2022-12-03T00:57:01.090Z,5.07
2022-12-03T00:59:29.772Z,4.82
2022-12-03T01:01:59.975Z,4.75
2022-12-03T01:04:28.864Z,4.80
2022-12-03T01:06:57.483Z,4.50
2022-12-03T01:09:27.184Z,4.60
2022-12-03T01:12:00.178Z,4.40
2022-12-03T01:14:35.632Z,4.32
2022-12-03T01:17:25.938Z,4.68
2022-12-03T01:19:54.710Z,4.78
2022-12-03T01:22:23.269Z,4.50
2022-12-03T01:24:52.127Z,4.78
2022-12-03T01:27:22.054Z,4.40
2022-12-03T01:29:52.716Z,4.05
2022-12-03T01:32:21.665Z,4.30
2022-12-03T01:34:52.559Z,4.65
2022-12-03T01:37:23.691Z,4.80
2022-12-03T01:39:52.925Z,4.78
2022-12-03T01:42:25.600Z,4.85
2022-12-03T01:44:57.623Z,5.35
2022-12-03T01:47:31.603Z,5.93
2022-12-03T01:50:05.468Z,5.30
2022-12-03T01:52:38.811Z,6.10
2022-12-03T01:55:15.358Z,5.63
2022-12-03T01:57:49.313Z,5.18
2022-12-03T02:00:21.638Z,5.82
2022-12-03T02:02:55.466Z,5.88
2022-12-03T02:05:28.844Z,5.85
2022-12-03T02:07:59.612Z,6.07
2022-12-03T02:10:32.639Z,6.20
2022-12-03T02:13:05.674Z,6.03
2022-12-03T02:15:34.836Z,5.65
2022-12-03T02:18:05.071Z,5.80
2022-12-03T02:20:38.056Z,6.10
2022-12-03T02:23:13.678Z,6.00
2022-12-03T02:25:43.907Z,6.38
2022-12-03T02:28:12.717Z,6.68
2022-12-03T02:30:41.296Z,6.22
2022-12-03T02:33:09.725Z,6.80
2022-12-03T02:35:40.058Z,6.35
2022-12-03T02:38:14.581Z,6.82
2022-12-03T02:40:47.336Z,5.75
2022-12-03T02:43:17.039Z,6.15
2022-12-03T02:45:48.397Z,6.20
2022-12-03T02:48:19.486Z,6.00
2022-12-03T02:50:51.654Z,6.60
2022-12-03T02:53:25.123Z,5.68
2022-12-03T02:55:57.824Z,6.07
2022-12-03T02:58:29.714Z,5.70
2022-12-03T03:01:00.084Z,6.15
2022-12-03T03:03:31.066Z,6.38
2022-12-03T03:06:02.657Z,5.88
2022-12-03T03:08:32.906Z,6.38
2022-12-03T03:11:04.328Z,6.82
2022-12-03T03:13:35.754Z,6.57
2022-12-03T03:16:05.573Z,6.70
2022-12-03T03:18:34.939Z,6.63
2022-12-03T03:21:03.994Z,6.28
2022-12-03T03:23:32.449Z,6.18
2022-12-03T03:26:06.136Z,6.63
2022-12-03T03:28:39.446Z,6.65
2022-12-03T03:31:10.517Z,6.72
2022-12-03T03:33:40.835Z,6.57
2022-12-03T03:36:12.656Z,6.78
2022-12-03T03:38:41.540Z,6.55
2022-12-03T03:41:13.607Z,6.38
2022-12-03T03:43:45.090Z,5.40
2022-12-03T03:46:16.767Z,4.85
2022-12-03T03:48:45.588Z,4.82
2022-12-03T03:51:14.794Z,4.82
2022-12-03T03:53:48.224Z,4.63
2022-12-03T03:56:23.264Z,4.88
2022-12-03T03:58:51.806Z,4.63
2022-12-03T04:01:20.595Z,4.00
2022-12-03T04:03:49.429Z,4.30
2022-12-03T04:06:17.941Z,4.78
2022-12-03T04:08:46.852Z,4.28
2022-12-03T04:11:33.728Z,4.60
2022-12-03T04:14:04.111Z,4.32
2022-12-03T04:16:32.869Z,4.72
2022-12-03T04:19:01.472Z,4.40
2022-12-03T04:21:47.537Z,4.40
2022-12-03T04:24:16.486Z,4.15
2022-12-03T04:27:02.537Z,4.00
2022-12-03T04:29:32.566Z,4.00
2022-12-03T04:32:18.255Z,3.78
2022-12-03T04:35:04.669Z,4.30
2022-12-03T04:37:34.245Z,4.07
2022-12-03T04:40:23.017Z,3.75
2022-12-03T04:42:51.463Z,4.15
2022-12-03T04:45:22.555Z,3.95
2022-12-03T04:47:51.408Z,3.90
2022-12-03T04:50:19.917Z,3.97
2022-12-03T04:52:49.753Z,4.00
2022-12-03T04:55:19.366Z,3.55
2022-12-03T04:57:48.974Z,4.20
2022-12-03T05:00:18.665Z,3.80
2022-12-03T05:02:48.777Z,3.60
2022-12-03T05:05:18.216Z,3.78
2022-12-03T05:07:46.859Z,4.00
2022-12-03T05:10:15.786Z,3.53
2022-12-03T05:12:44.408Z,3.75
2022-12-03T05:15:13.294Z,3.97
2022-12-03T05:17:41.798Z,4.18
2022-12-03T05:20:30.554Z,4.32
2022-12-03T05:22:59.134Z,3.70
2022-12-03T05:25:27.863Z,3.88
2022-12-03T05:27:56.340Z,4.05
2022-12-03T05:30:25.140Z,4.10
2022-12-03T05:32:54.935Z,3.90
2022-12-03T05:35:25.881Z,4.15
2022-12-03T05:37:54.558Z,4.15
2022-12-03T05:40:23.150Z,4.05
2022-12-03T05:42:57.388Z,4.70
2022-12-03T05:45:28.357Z,4.63
2022-12-03T05:47:58.554Z,5.10
2022-12-03T05:50:31.027Z,4.70
2022-12-03T05:53:00.629Z,4.90
2022-12-03T05:55:30.570Z,4.57
2022-12-03T05:57:59.420Z,4.88
2022-12-03T06:00:31.006Z,4.95
2022-12-03T06:03:00.501Z,5.30
2022-12-03T06:05:31.097Z,5.05
2022-12-03T06:08:00.307Z,5.15
2022-12-03T06:10:29.686Z,5.22
2022-12-03T06:12:58.618Z,5.78
2022-12-03T06:15:27.170Z,5.55
2022-12-03T06:17:55.754Z,5.28
2022-12-03T06:20:24.371Z,5.35
2022-12-03T06:22:55.554Z,5.28
2022-12-03T06:25:24.156Z,5.10
2022-12-03T06:27:52.936Z,5.07
2022-12-03T06:30:22.466Z,5.15
2022-12-03T06:32:51.965Z,5.20
2022-12-03T06:35:22.412Z,5.47
2022-12-03T06:37:50.816Z,4.63
2022-12-03T06:40:21.956Z,5.43
2022-12-03T06:42:50.291Z,4.88
2022-12-03T06:45:18.798Z,5.25
2022-12-03T06:47:47.431Z,4.88
2022-12-03T06:50:16.024Z,5.00
2022-12-03T06:52:44.553Z,4.75
2022-12-03T06:55:13.336Z,4.63
2022-12-03T06:57:43.345Z,4.88
2022-12-03T07:00:13.069Z,4.72
2022-12-03T07:02:41.599Z,4.68
2022-12-03T07:05:10.314Z,4.93
2022-12-03T07:07:39.982Z,4.18
2022-12-03T07:10:10.115Z,4.38
2022-12-03T07:12:38.690Z,3.70
2022-12-03T07:15:09.777Z,3.15
2022-12-03T07:17:39.363Z,3.20
2022-12-03T07:20:09.469Z,3.80
2022-12-03T07:22:38.191Z,2.80
2022-12-03T07:25:08.409Z,3.20
2022-12-03T07:27:37.350Z,3.22
2022-12-03T07:30:06.822Z,3.35
2022-12-03T07:32:36.927Z,3.38
2022-12-03T07:35:07.879Z,2.97
2022-12-03T07:37:37.958Z,3.05
2022-12-03T07:40:07.898Z,3.03
2022-12-03T07:42:37.779Z,3.30
2022-12-03T07:45:07.400Z,2.97
2022-12-03T07:47:37.796Z,3.38
2022-12-03T07:50:07.855Z,3.03
2022-12-03T07:52:36.994Z,2.88
2022-12-03T07:55:06.188Z,2.83
2022-12-03T07:57:34.505Z,2.83
2022-12-03T08:00:03.200Z,2.75
2022-12-03T08:02:31.861Z,2.90
2022-12-03T08:05:01.949Z,2.90
2022-12-03T08:07:30.497Z,3.15
2022-12-03T08:09:59.288Z,2.78
2022-12-03T08:12:40.403Z,2.83
2022-12-03T08:15:15.627Z,2.30
2022-12-03T08:17:46.069Z,2.50
2022-12-03T08:20:55.634Z,3.00
2022-12-03T08:23:26.427Z,2.60
2022-12-03T08:25:55.299Z,2.50
2022-12-03T08:28:26.153Z,1.80
2022-12-03T08:31:02.729Z,2.30
2022-12-03T08:33:35.650Z,2.30
2022-12-03T08:36:14.864Z,2.58
2022-12-03T08:38:46.644Z,2.60
2022-12-03T08:41:37.656Z,2.85
2022-12-03T08:44:19.438Z,2.83
2022-12-03T08:46:55.545Z,2.75
2022-12-03T08:49:24.330Z,2.05
2022-12-03T08:52:00.960Z,2.40
2022-12-03T08:54:29.874Z,2.55
2022-12-03T08:56:58.571Z,2.53
2022-12-03T08:59:31.452Z,2.75
2022-12-03T09:02:01.192Z,2.42
2022-12-03T09:04:38.099Z,2.22
2022-12-03T09:07:08.165Z,2.17
2022-12-03T09:09:36.609Z,2.60
2022-12-03T09:12:05.210Z,2.47
2022-12-03T09:14:33.877Z,2.25
2022-12-03T09:17:02.839Z,2.55
2022-12-03T09:19:32.834Z,2.80
2022-12-03T09:22:01.485Z,2.95
2022-12-03T09:24:31.572Z,3.42
2022-12-03T09:27:00.368Z,3.08
2022-12-03T09:29:28.941Z,2.80
2022-12-03T09:31:57.455Z,2.70
2022-12-03T09:34:25.811Z,2.78
2022-12-03T09:36:54.194Z,2.38
2022-12-03T09:39:22.807Z,2.35
2022-12-03T09:41:53.113Z,3.05
2022-12-03T09:44:21.932Z,2.97
2022-12-03T09:46:51.325Z,3.00
2022-12-03T09:49:21.356Z,3.00
2022-12-03T09:51:49.910Z,2.50
2022-12-03T09:54:25.397Z,2.78
2022-12-03T09:56:56.500Z,3.00
2022-12-03T09:59:28.999Z,2.90
2022-12-03T10:01:57.873Z,3.10
2022-12-03T10:04:27.081Z,2.80
2022-12-03T10:06:56.603Z,2.95
2022-12-03T10:09:27.904Z,2.80
2022-12-03T10:11:58.944Z,3.13
2022-12-03T10:14:28.654Z,3.08
2022-12-03T10:16:57.867Z,3.20
2022-12-03T10:19:29.155Z,3.13
2022-12-03T10:21:57.935Z,3.08
2022-12-03T10:24:29.240Z,3.75
2022-12-03T10:27:01.213Z,3.40
2022-12-03T10:29:34.187Z,3.25
2022-12-03T10:32:05.455Z,3.30
2022-12-03T10:34:36.093Z,3.40
2022-12-03T10:37:14.120Z,3.05
2022-12-03T10:40:05.898Z,3.38
2022-12-03T10:42:38.116Z,2.90
2022-12-03T10:45:15.478Z,3.58
2022-12-03T10:47:45.423Z,2.92
2022-12-03T10:50:20.822Z,3.53
2022-12-03T10:52:49.470Z,3.10
2022-12-03T10:55:18.585Z,3.20
2022-12-03T10:57:48.483Z,2.88
2022-12-03T11:00:19.379Z,2.25
2022-12-03T11:02:54.945Z,2.70
2022-12-03T11:05:28.787Z,3.00
2022-12-03T11:07:58.767Z,2.45
2022-12-03T11:10:32.848Z,3.00
2022-12-03T11:13:43.901Z,2.70
2022-12-03T11:16:13.418Z,3.20
2022-12-03T11:19:02.641Z,3.30
2022-12-03T11:21:32.081Z,3.30
2022-12-03T11:24:06.001Z,3.15
2022-12-03T11:27:11.377Z,3.15
2022-12-03T11:29:59.322Z,2.80
2022-12-03T11:33:10.292Z,2.00
2022-12-03T11:36:11.557Z,1.90
2022-12-03T11:38:59.407Z,1.55
2022-12-03T11:41:32.249Z,1.75
2022-12-03T11:44:17.245Z,1.58
2022-12-03T11:46:48.733Z,1.80
2022-12-03T11:49:39.575Z,1.60
2022-12-03T11:52:31.021Z,1.80
2022-12-03T11:55:06.055Z,1.50
2022-12-03T11:57:38.863Z,1.80
2022-12-03T12:00:17.306Z,1.83
2022-12-03T12:02:47.662Z,1.80
2022-12-03T12:05:22.278Z,1.88
2022-12-03T12:07:51.066Z,1.52
2022-12-03T12:10:43.517Z,1.83
2022-12-03T12:13:55.020Z,1.58
2022-12-03T12:16:51.002Z,1.60
2022-12-03T12:19:36.635Z,1.80
2022-12-03T12:22:20.218Z,2.10
2022-12-03T12:24:53.383Z,1.50
2022-12-03T12:27:24.037Z,1.42
2022-12-03T12:29:56.221Z,1.90
2022-12-03T12:32:28.412Z,1.85
2022-12-03T12:35:04.523Z,1.95
2022-12-03T12:37:37.735Z,1.40
2022-12-03T12:40:15.767Z,1.60
2022-12-03T12:42:51.299Z,1.95
2022-12-03T12:45:22.418Z,1.70
2022-12-03T12:48:07.474Z,2.00
2022-12-03T12:50:39.473Z,1.50
2022-12-03T12:53:14.336Z,1.60
2022-12-03T12:55:43.879Z,2.05
2022-12-03T12:58:17.418Z,1.60
2022-12-03T13:00:50.228Z,1.40
2022-12-03T13:03:20.591Z,1.58
2022-12-03T13:05:52.904Z,1.45
2022-12-03T13:08:29.197Z,1.65
2022-12-03T13:10:59.234Z,1.73
2022-12-03T13:13:34.061Z,1.67
2022-12-03T13:16:13.515Z,1.33
2022-12-03T13:18:47.425Z,1.63
2022-12-03T13:21:24.062Z,1.98
2022-12-03T13:23:55.627Z,1.77
2022-12-03T13:26:37.720Z,2.10
2022-12-03T13:29:16.736Z,2.13
2022-12-03T13:31:53.789Z,2.33
2022-12-03T13:34:25.564Z,2.28
2022-12-03T13:36:58.571Z,2.58
2022-12-03T13:39:35.318Z,2.80
2022-12-03T13:42:37.318Z,2.28
2022-12-03T13:45:28.958Z,2.78
2022-12-03T13:47:59.074Z,3.10
2022-12-03T13:50:35.303Z,3.22
2022-12-03T13:53:16.132Z,3.15
2022-12-03T13:55:47.316Z,3.40
2022-12-03T13:58:15.861Z,2.92
2022-12-03T14:00:49.047Z,2.67
2022-12-03T14:03:17.816Z,2.60
2022-12-03T14:05:46.111Z,2.28
2022-12-03T14:08:16.406Z,2.40
2022-12-03T14:10:45.111Z,2.80
2022-12-03T14:13:13.606Z,3.00
2022-12-03T14:15:42.261Z,3.35
2022-12-03T14:18:10.783Z,2.00
2022-12-03T14:20:40.031Z,2.40
2022-12-03T14:23:08.374Z,2.10
2022-12-03T14:25:38.238Z,1.80
2022-12-03T14:28:09.039Z,2.13
2022-12-03T14:30:37.776Z,2.85
2022-12-03T14:33:06.465Z,2.22
2022-12-03T14:35:35.652Z,2.90
2022-12-03T14:38:04.302Z,4.32
2022-12-03T14:40:33.528Z,3.25
2022-12-03T14:43:03.559Z,2.88
2022-12-03T14:45:32.333Z,2.53
2022-12-03T14:48:01.162Z,2.00
2022-12-03T14:50:29.783Z,2.10
2022-12-03T14:52:58.631Z,1.85
2022-12-03T14:55:27.359Z,1.70
2022-12-03T14:57:56.150Z,1.83
2022-12-03T15:00:26.300Z,2.17
2022-12-03T15:02:54.902Z,2.30
2022-12-03T15:05:28.611Z,3.10
2022-12-03T15:07:59.209Z,3.00
2022-12-03T15:10:28.196Z,4.25
2022-12-03T15:12:56.796Z,5.20
2022-12-03T15:15:26.658Z,3.17
2022-12-03T15:17:55.187Z,4.88
2022-12-03T15:20:23.960Z,3.17
2022-12-03T15:22:53.288Z,3.13
2022-12-03T15:25:25.711Z,3.67
2022-12-03T15:27:54.051Z,2.90
2022-12-03T15:30:22.581Z,7.68
2022-12-03T15:32:52.556Z,6.65
2022-12-03T15:35:21.147Z,9.23
2022-12-03T15:37:49.720Z,6.18
2022-12-03T15:40:18.417Z,2.35
2022-12-03T15:42:47.038Z,2.45
2022-12-03T15:45:15.733Z,1.98
2022-12-03T15:47:45.504Z,2.60
2022-12-03T15:50:16.731Z,2.20
2022-12-03T15:52:45.477Z,3.42
2022-12-03T15:55:14.179Z,3.33
2022-12-03T15:57:42.645Z,4.28
2022-12-03T16:00:13.517Z,2.88
2022-12-03T16:02:45.144Z,2.60
2022-12-03T16:05:19.504Z,2.35
2022-12-03T16:07:48.137Z,2.53
2022-12-03T16:10:17.981Z,2.70
2022-12-03T16:12:48.968Z,3.40
2022-12-03T16:15:23.679Z,5.80
2022-12-03T16:17:55.845Z,6.55
2022-12-03T16:20:25.901Z,6.22
2022-12-03T16:22:55.674Z,6.05
2022-12-03T16:25:26.378Z,5.35
2022-12-03T16:27:55.060Z,4.40
2022-12-03T16:30:24.900Z,14.77
2022-12-03T16:32:54.476Z,6.15
2022-12-03T16:35:23.048Z,6.60
2022-12-03T16:37:53.063Z,8.18
2022-12-03T16:40:21.641Z,9.75
2022-12-03T16:42:50.038Z,7.93
2022-12-03T16:45:33.968Z,8.77
2022-12-03T16:48:03.864Z,14.73
2022-12-03T16:50:32.280Z,6.47
2022-12-03T16:53:02.488Z,5.20
2022-12-03T16:55:31.068Z,7.57
2022-12-03T16:57:59.449Z,5.68
2022-12-03T17:00:28.482Z,5.90
2022-12-03T17:02:58.224Z,6.22
2022-12-03T17:05:27.011Z,6.20
2022-12-03T17:07:55.791Z,6.65
2022-12-03T17:10:25.883Z,5.68
2022-12-03T17:13:09.229Z,6.20
2022-12-03T17:15:40.168Z,14.55
2022-12-03T17:18:09.784Z,5.60
2022-12-03T17:20:41.746Z,5.57
2022-12-03T17:23:12.098Z,6.32
2022-12-03T17:25:43.502Z,8.88
2022-12-03T17:28:13.268Z,6.38
2022-12-03T17:30:41.956Z,7.97
2022-12-03T17:33:12.286Z,6.13
2022-12-03T17:35:41.764Z,6.95
2022-12-03T17:38:11.596Z,5.63
2022-12-03T17:40:40.266Z,4.80
2022-12-03T17:43:10.558Z,4.93
2022-12-03T17:45:38.956Z,3.63
2022-12-03T17:48:08.474Z,3.80
2022-12-03T17:50:39.107Z,16.25
2022-12-03T17:53:10.779Z,4.82
2022-12-03T17:55:44.605Z,8.25
2022-12-03T17:58:16.666Z,5.65
2022-12-03T18:00:45.691Z,4.38
2022-12-03T18:03:14.820Z,6.78
2022-12-03T18:05:43.462Z,8.00
2022-12-03T18:08:11.974Z,4.78
2022-12-03T18:10:40.557Z,5.70
2022-12-03T18:13:10.121Z,5.47
2022-12-03T18:15:40.076Z,4.00
2022-12-03T18:18:08.641Z,4.45
2022-12-03T18:20:37.690Z,13.27
2022-12-03T18:23:07.140Z,6.63
2022-12-03T18:25:37.274Z,7.38
2022-12-03T18:28:06.237Z,6.68
2022-12-03T18:30:36.015Z,6.10
2022-12-03T18:33:09.009Z,6.03
2022-12-03T18:35:37.810Z,16.35
2022-12-03T18:38:06.642Z,20.45
2022-12-03T18:40:35.546Z,15.45
2022-12-03T18:43:04.244Z,9.60
2022-12-03T18:45:35.491Z,9.35
2022-12-03T18:48:04.131Z,10.38
2022-12-03T18:50:34.466Z,13.68
2022-12-03T18:53:03.421Z,5.28
2022-12-03T18:55:36.095Z,19.88
2022-12-03T18:58:06.237Z,20.70
2022-12-03T19:00:36.101Z,12.27
2022-12-03T19:03:05.210Z,9.23
2022-12-03T19:05:38.086Z,11.02
2022-12-03T19:08:15.156Z,8.18
2022-12-03T19:10:47.213Z,13.82
2022-12-03T19:13:15.782Z,5.88
2022-12-03T19:15:45.961Z,5.03
2022-12-03T19:18:15.789Z,5.88
2022-12-03T19:20:48.480Z,5.85
2022-12-03T19:23:18.111Z,6.15
2022-12-03T19:25:57.852Z,5.50
2022-12-03T19:28:27.274Z,4.60
2022-12-03T19:31:00.871Z,5.45
2022-12-03T19:33:30.126Z,6.72
2022-12-03T19:36:02.186Z,17.92
2022-12-03T19:38:31.697Z,6.57
2022-12-03T19:41:02.006Z,5.63
2022-12-03T19:43:32.188Z,6.30
2022-12-03T19:46:05.215Z,6.47
2022-12-03T19:48:34.768Z,4.80
2022-12-03T19:51:26.583Z,5.43
2022-12-03T19:53:56.438Z,5.40
2022-12-03T19:56:25.976Z,5.82
2022-12-03T19:58:56.529Z,6.30
2022-12-03T20:01:27.977Z,6.55
2022-12-03T20:03:59.098Z,4.93
2022-12-03T20:06:31.055Z,3.22
2022-12-03T20:09:02.201Z,3.13
2022-12-03T20:11:33.111Z,4.03
2022-12-03T20:14:04.374Z,3.15
2022-12-03T20:16:33.298Z,3.80
2022-12-03T20:19:08.944Z,4.25
2022-12-03T20:21:40.571Z,6.18
2022-12-03T20:24:12.300Z,4.70
2022-12-03T20:26:42.336Z,4.20
2022-12-03T20:29:11.017Z,4.50
2022-12-03T20:31:41.180Z,4.93
2022-12-03T20:34:11.514Z,6.53
2022-12-03T20:36:43.299Z,5.53
2022-12-03T20:39:12.622Z,6.30
2022-12-03T20:41:41.325Z,5.55
2022-12-03T20:44:10.201Z,8.38
2022-12-03T20:46:38.902Z,6.13
2022-12-03T20:49:07.569Z,20.27
2022-12-03T20:51:36.385Z,6.93
2022-12-03T20:54:06.652Z,6.00
2022-12-03T20:56:39.586Z,5.60
2022-12-03T20:59:12.346Z,5.47
2022-12-03T21:01:43.006Z,6.93
2022-12-03T21:04:16.630Z,7.93
2022-12-03T21:06:52.541Z,6.63
2022-12-03T21:09:24.703Z,8.25
2022-12-03T21:11:53.272Z,13.90
2022-12-03T21:14:22.180Z,16.40
2022-12-03T21:17:08.776Z,14.75
2022-12-03T21:19:38.394Z,12.35
2022-12-03T21:22:07.843Z,7.93
2022-12-03T21:24:43.209Z,8.00
2022-12-03T21:27:14.584Z,5.88
2022-12-03T21:29:49.948Z,5.55
2022-12-03T21:32:18.613Z,5.40
2022-12-03T21:34:47.450Z,4.60
2022-12-03T21:37:17.457Z,4.35
2022-12-03T21:39:49.027Z,5.30
2022-12-03T21:42:34.275Z,5.63
2022-12-03T21:45:07.441Z,5.20
2022-12-03T21:47:37.491Z,5.15
2022-12-03T21:50:09.599Z,6.57
2022-12-03T21:52:38.230Z,4.32
2022-12-03T21:55:08.995Z,6.45
2022-12-03T21:57:37.955Z,34.88
2022-12-03T22:00:09.550Z,7.10
2022-12-03T22:02:40.110Z,4.03
2022-12-03T22:05:10.909Z,4.78
2022-12-03T22:07:40.602Z,10.85
2022-12-03T22:10:13.663Z,22.73
2022-12-03T22:12:42.479Z,8.65
2022-12-03T22:15:18.482Z,9.50
2022-12-03T22:17:51.085Z,6.00
2022-12-03T22:20:19.889Z,6.40
2022-12-03T22:22:48.483Z,7.57
2022-12-03T22:25:19.013Z,10.07
2022-12-03T22:27:50.547Z,11.93
2022-12-03T22:30:19.059Z,9.60
2022-12-03T22:32:50.666Z,7.10
2022-12-03T22:35:19.239Z,7.30
2022-12-03T22:37:48.980Z,7.93
2022-12-03T22:40:19.356Z,5.68
2022-12-03T22:42:51.803Z,6.10
2022-12-03T22:45:20.461Z,5.85
2022-12-03T22:47:49.100Z,6.38
2022-12-03T22:50:18.111Z,6.22
2022-12-03T22:52:46.828Z,5.95
2022-12-03T22:55:15.808Z,5.10
2022-12-03T22:57:45.911Z,5.25
2022-12-03T23:00:18.445Z,5.40
2022-12-03T23:02:47.242Z,6.05
2022-12-03T23:05:16.328Z,5.30
2022-12-03T23:07:45.062Z,5.40
2022-12-03T23:10:14.680Z,5.10
2022-12-03T23:12:45.969Z,4.78
2022-12-03T23:15:14.510Z,4.60
2022-12-03T23:17:45.040Z,4.85
2022-12-03T23:20:14.633Z,5.50
2022-12-03T23:22:44.871Z,5.68
2022-12-03T23:25:14.535Z,4.80
2022-12-03T23:27:43.267Z,4.40
2022-12-03T23:30:16.234Z,4.50
2022-12-03T23:32:45.317Z,4.15
2022-12-03T23:35:15.076Z,4.68
2022-12-03T23:37:45.368Z,4.60
2022-12-03T23:40:14.991Z,3.90
2022-12-03T23:42:46.326Z,3.90
2022-12-03T23:45:16.662Z,4.05
2022-12-03T23:47:46.221Z,4.40
2022-12-03T23:50:14.941Z,4.20
2022-12-03T23:52:44.707Z,4.97
2022-12-03T23:55:14.430Z,4.25
2022-12-03T23:57:44.328Z,4.68
